createdAt,value
2019-04-07T00:00:39.316Z,62.43
2019-04-07T00:01:38.664Z,61.95
2019-04-07T00:02:38.660Z,62.05
2019-04-07T00:03:38.983Z,61.76
2019-04-07T00:04:38.654Z,61.73
2019-04-07T00:05:38.905Z,60.97
2019-04-07T00:06:38.648Z,60.58
2019-04-07T00:07:39.011Z,60.78
2019-04-07T00:08:38.684Z,60.81
2019-04-07T00:09:38.737Z,60.87
2019-04-07T00:10:38.637Z,60.78
2019-04-07T00:11:38.635Z,60.21
2019-04-07T00:12:38.631Z,60.14
2019-04-07T00:13:38.628Z,60.71
2019-04-07T00:14:39.151Z,60.97
2019-04-07T00:15:38.954Z,60.14
2019-04-07T00:16:39.065Z,59.63
2019-04-07T00:17:38.753Z,60.21
2019-04-07T00:18:38.841Z,59.92
2019-04-07T00:19:38.919Z,60.39
2019-04-07T00:20:38.713Z,60.97
2019-04-07T00:21:38.660Z,60.90
2019-04-07T00:22:38.603Z,61.29
2019-04-07T00:23:38.915Z,61.16
2019-04-07T00:24:39.202Z,61.92
2019-04-07T00:25:38.631Z,62.11
2019-04-07T00:26:38.590Z,62.11
2019-04-07T00:27:39.126Z,61.86
2019-04-07T00:28:38.584Z,61.95
2019-04-07T00:29:39.348Z,62.24
2019-04-07T00:30:38.577Z,63.00
2019-04-07T00:31:38.645Z,63.10
2019-04-07T00:32:38.803Z,64.05
2019-04-07T00:33:38.568Z,63.76
2019-04-07T00:34:39.695Z,64.25
2019-04-07T00:35:38.903Z,63.96
2019-04-07T00:36:38.560Z,64.05
2019-04-07T00:37:38.556Z,63.29
2019-04-07T00:38:38.552Z,63.57
2019-04-07T00:39:38.816Z,63.57
2019-04-07T00:40:39.128Z,64.53
2019-04-07T00:41:38.745Z,64.34
2019-04-07T00:42:39.061Z,64.05
2019-04-07T00:43:38.537Z,64.81
2019-04-07T00:44:38.986Z,64.15
2019-04-07T00:45:38.545Z,64.05
2019-04-07T00:46:38.590Z,64.15
2019-04-07T00:47:38.852Z,64.34
2019-04-07T00:48:38.634Z,64.62
2019-04-07T00:49:38.532Z,65.10
2019-04-07T00:50:38.518Z,64.81
2019-04-07T00:51:38.513Z,64.81
2019-04-07T00:52:39.079Z,65.20
2019-04-07T00:53:38.834Z,65.01
2019-04-07T00:54:39.094Z,64.25
2019-04-07T00:55:38.596Z,65.01
2019-04-07T00:56:39.080Z,65.10
2019-04-07T00:57:38.494Z,65.48
2019-04-07T00:58:39.062Z,65.87
2019-04-07T00:59:38.603Z,65.90
2019-04-07T01:00:38.800Z,66.35
2019-04-07T01:01:38.482Z,66.44
2019-04-07T01:02:38.823Z,67.14
2019-04-07T01:03:39.130Z,67.52
2019-04-07T01:04:38.475Z,68.48
2019-04-07T01:05:40.775Z,68.10
2019-04-07T01:06:38.466Z,68.00
2019-04-07T01:07:38.897Z,68.57
2019-04-07T01:08:38.461Z,68.86
2019-04-07T01:09:38.688Z,69.24
2019-04-07T01:10:38.458Z,69.34
2019-04-07T01:11:38.493Z,68.67
2019-04-07T01:12:38.575Z,68.67
2019-04-07T01:13:38.545Z,68.86
2019-04-07T01:14:38.906Z,68.76
2019-04-07T01:15:38.517Z,69.15
2019-04-07T01:16:38.435Z,68.76
2019-04-07T01:17:39.147Z,69.11
2019-04-07T01:18:38.430Z,68.76
2019-04-07T01:19:38.425Z,68.86
2019-04-07T01:20:38.422Z,69.34
2019-04-07T01:21:38.418Z,68.76
2019-04-07T01:22:38.417Z,69.11
2019-04-07T01:23:38.955Z,70.10
2019-04-07T01:24:38.410Z,70.10
2019-04-07T01:25:39.425Z,70.58
2019-04-07T01:26:38.414Z,70.29
2019-04-07T01:27:39.002Z,70.10
2019-04-07T01:28:38.397Z,69.91
2019-04-07T01:29:38.725Z,69.68
2019-04-07T01:30:38.389Z,69.02
2019-04-07T01:31:38.388Z,69.11
2019-04-07T01:32:38.787Z,68.92
2019-04-07T01:33:38.916Z,68.26
2019-04-07T01:34:38.379Z,68.35
2019-04-07T01:35:46.189Z,68.63
2019-04-07T01:36:38.373Z,68.06
2019-04-07T01:37:38.369Z,67.40
2019-04-07T01:38:38.366Z,67.49
2019-04-07T01:39:38.363Z,69.21
2019-04-07T01:40:39.005Z,69.11
2019-04-07T01:41:38.364Z,68.92
2019-04-07T01:42:38.352Z,69.49
2019-04-07T01:43:38.349Z,70.16
2019-04-07T01:44:38.721Z,70.07
2019-04-07T01:45:38.345Z,69.02
2019-04-07T01:46:38.342Z,68.54
2019-04-07T01:47:38.468Z,69.02
2019-04-07T01:48:38.849Z,69.11
2019-04-07T01:49:38.329Z,70.92
2019-04-07T01:50:38.515Z,71.50
2019-04-07T01:51:38.325Z,71.59
2019-04-07T01:52:38.320Z,71.31
2019-04-07T01:53:38.597Z,73.32
2019-04-07T01:54:38.405Z,72.26
2019-04-07T01:55:38.753Z,73.32
2019-04-07T01:56:38.435Z,73.79
2019-04-07T01:57:38.867Z,75.54
2019-04-07T01:58:38.301Z,75.79
2019-04-07T01:59:39.192Z,75.93
2019-04-07T02:00:38.297Z,76.40
2019-04-07T02:01:38.483Z,76.40
2019-04-07T02:02:38.288Z,78.03
2019-04-07T02:03:38.284Z,78.79
2019-04-07T02:04:38.865Z,77.36
2019-04-07T02:05:38.558Z,77.26
2019-04-07T02:06:38.322Z,77.17
2019-04-07T02:07:39.060Z,76.50
2019-04-07T02:08:38.619Z,76.79
2019-04-07T02:09:38.267Z,77.26
2019-04-07T02:10:38.265Z,76.27
2019-04-07T02:11:38.618Z,76.65
2019-04-07T02:12:38.256Z,76.46
2019-04-07T02:13:38.257Z,75.70
2019-04-07T02:14:39.310Z,75.32
2019-04-07T02:15:38.265Z,77.42
2019-04-07T02:16:38.242Z,76.56
2019-04-07T02:17:38.238Z,77.80
2019-04-07T02:18:38.828Z,77.61
2019-04-07T02:19:38.234Z,77.03
2019-04-07T02:20:38.716Z,77.65
2019-04-07T02:21:38.227Z,77.13
2019-04-07T02:22:38.597Z,78.75
2019-04-07T02:23:38.223Z,78.28
2019-04-07T02:24:38.739Z,78.28
2019-04-07T02:25:38.214Z,77.42
2019-04-07T02:26:38.976Z,78.37
2019-04-07T02:27:38.359Z,81.56
2019-04-07T02:28:38.338Z,81.09
2019-04-07T02:29:38.808Z,80.99
2019-04-07T02:30:39.190Z,81.09
2019-04-07T02:31:38.297Z,80.51
2019-04-07T02:32:38.202Z,80.22
2019-04-07T02:33:39.320Z,79.90
2019-04-07T02:34:38.187Z,79.43
2019-04-07T02:35:38.182Z,79.33
2019-04-07T02:36:38.754Z,79.33
2019-04-07T02:37:38.755Z,78.94
2019-04-07T02:38:38.896Z,78.47
2019-04-07T02:39:38.693Z,79.52
2019-04-07T02:40:38.370Z,80.09
2019-04-07T02:41:38.161Z,80.28
2019-04-07T02:42:38.376Z,79.99
2019-04-07T02:43:38.416Z,79.61
2019-04-07T02:44:38.912Z,79.04
2019-04-07T02:45:38.347Z,79.04
2019-04-07T02:46:38.223Z,77.80
2019-04-07T02:47:38.144Z,78.09
2019-04-07T02:48:38.144Z,77.00
2019-04-07T02:49:39.285Z,77.86
2019-04-07T02:50:38.587Z,77.13
2019-04-07T02:51:38.384Z,78.37
2019-04-07T02:52:38.856Z,80.85
2019-04-07T02:53:39.091Z,79.99
2019-04-07T02:54:38.118Z,80.38
2019-04-07T02:55:38.126Z,80.57
2019-04-07T02:56:38.114Z,80.09
2019-04-07T02:57:38.210Z,79.99
2019-04-07T02:58:38.108Z,79.43
2019-04-07T02:59:41.027Z,80.76
2019-04-07T03:00:38.099Z,79.90
2019-04-07T03:01:38.300Z,80.09
2019-04-07T03:02:39.201Z,80.85
2019-04-07T03:03:39.189Z,79.71
2019-04-07T03:04:38.421Z,79.04
2019-04-07T03:05:38.083Z,78.47
2019-04-07T03:06:45.768Z,77.67
2019-04-07T03:07:38.999Z,77.19
2019-04-07T03:08:38.071Z,77.95
2019-04-07T03:09:38.069Z,79.04
2019-04-07T03:10:38.548Z,78.72
2019-04-07T03:11:38.062Z,78.47
2019-04-07T03:12:38.056Z,77.76
2019-04-07T03:13:38.188Z,77.28
2019-04-07T03:14:39.145Z,77.57
2019-04-07T03:15:38.812Z,77.76
2019-04-07T03:16:38.045Z,77.00
2019-04-07T03:17:38.047Z,77.38
2019-04-07T03:18:38.910Z,77.76
2019-04-07T03:19:38.032Z,77.38
2019-04-07T03:20:39.132Z,77.95
2019-04-07T03:21:38.250Z,77.38
2019-04-07T03:22:38.462Z,76.90
2019-04-07T03:23:38.368Z,77.19
2019-04-07T03:24:38.016Z,76.90
2019-04-07T03:25:38.650Z,76.90
2019-04-07T03:26:38.009Z,75.95
2019-04-07T03:27:38.170Z,75.47
2019-04-07T03:28:38.001Z,75.66
2019-04-07T03:29:38.433Z,74.71
2019-04-07T03:30:40.039Z,75.76
2019-04-07T03:31:38.864Z,75.66
2019-04-07T03:32:40.286Z,75.66
2019-04-07T03:33:40.775Z,76.90
2019-04-07T03:34:38.959Z,77.00
2019-04-07T03:35:40.231Z,76.90
2019-04-07T03:37:09.664Z,76.42
2019-04-07T03:37:43.389Z,76.42
2019-04-07T03:38:38.465Z,76.67
2019-04-07T03:39:38.210Z,77.00
2019-04-07T03:40:37.972Z,77.09
2019-04-07T03:41:38.511Z,76.42
2019-04-07T03:42:38.489Z,76.52
2019-04-07T03:43:38.011Z,76.77
2019-04-07T03:44:37.946Z,77.00
2019-04-07T03:45:38.051Z,76.23
2019-04-07T03:46:38.841Z,76.01
2019-04-07T03:47:37.949Z,75.43
2019-04-07T03:48:38.022Z,74.67
2019-04-07T03:49:38.070Z,73.72
2019-04-07T03:50:38.661Z,73.52
2019-04-07T03:51:37.935Z,72.38
2019-04-07T03:52:37.947Z,72.48
2019-04-07T03:53:37.913Z,71.52
2019-04-07T03:54:37.938Z,72.19
2019-04-07T03:55:38.510Z,71.72
2019-04-07T03:56:37.900Z,71.52
2019-04-07T03:57:38.977Z,71.30
2019-04-07T03:58:37.894Z,71.01
2019-04-07T03:59:38.390Z,70.44
2019-04-07T04:00:37.896Z,69.58
2019-04-07T04:01:37.886Z,69.29
2019-04-07T04:02:38.065Z,67.96
2019-04-07T04:03:38.600Z,67.39
2019-04-07T04:04:37.871Z,67.29
2019-04-07T04:05:37.877Z,66.53
2019-04-07T04:06:38.781Z,65.45
2019-04-07T04:07:38.730Z,66.02
2019-04-07T04:08:38.291Z,65.73
2019-04-07T04:09:39.744Z,65.36
2019-04-07T04:10:38.502Z,64.87
2019-04-07T04:11:37.843Z,64.69
2019-04-07T04:12:37.900Z,64.69
2019-04-07T04:13:37.960Z,64.69
2019-04-07T04:14:37.899Z,64.69
2019-04-07T04:15:38.210Z,64.12
2019-04-07T04:16:37.822Z,63.83
2019-04-07T04:17:37.826Z,64.59
2019-04-07T04:18:37.816Z,64.87
2019-04-07T04:19:37.814Z,65.16
2019-04-07T04:20:38.739Z,66.11
2019-04-07T04:21:38.185Z,67.00
2019-04-07T04:22:37.993Z,67.48
2019-04-07T04:23:41.316Z,67.77
2019-04-07T04:24:38.103Z,67.48
2019-04-07T04:25:38.507Z,66.59
2019-04-07T04:26:37.996Z,66.82
2019-04-07T04:27:38.601Z,66.59
2019-04-07T04:28:37.775Z,66.59
2019-04-07T04:29:37.773Z,65.26
2019-04-07T04:30:37.766Z,65.73
2019-04-07T04:31:37.765Z,65.26
2019-04-07T04:32:37.758Z,65.07
2019-04-07T04:33:37.915Z,63.83
2019-04-07T04:34:37.753Z,62.88
2019-04-07T04:35:38.788Z,62.49
2019-04-07T04:36:38.064Z,61.25
2019-04-07T04:37:44.225Z,61.45
2019-04-07T04:38:38.440Z,61.73
2019-04-07T04:39:38.657Z,60.69
2019-04-07T04:40:37.725Z,60.49
2019-04-07T04:41:37.731Z,60.69
2019-04-07T04:42:37.759Z,59.06
2019-04-07T04:43:38.087Z,57.70
2019-04-07T04:44:37.985Z,58.21
2019-04-07T04:45:38.650Z,57.82
2019-04-07T04:46:38.670Z,58.78
2019-04-07T04:47:38.115Z,59.16
2019-04-07T04:48:38.643Z,60.11
2019-04-07T04:49:38.419Z,60.69
2019-04-07T04:50:38.442Z,60.69
2019-04-07T04:51:39.525Z,60.78
2019-04-07T04:52:38.298Z,60.02
2019-04-07T04:53:38.158Z,60.11
2019-04-07T04:54:37.669Z,59.35
2019-04-07T04:55:37.666Z,59.83
2019-04-07T04:56:37.663Z,59.26
2019-04-07T04:57:37.675Z,58.78
2019-04-07T04:58:38.128Z,58.18
2019-04-07T04:59:37.646Z,57.13
2019-04-07T05:00:38.301Z,57.32
2019-04-07T05:01:37.870Z,56.49
2019-04-07T05:02:38.141Z,57.82
2019-04-07T05:03:38.247Z,57.92
2019-04-07T05:04:38.315Z,58.21
2019-04-07T05:05:38.036Z,57.92
2019-04-07T05:06:37.895Z,57.82
2019-04-07T05:07:50.216Z,57.70
2019-04-07T05:08:37.891Z,57.82
2019-04-07T05:09:44.244Z,58.40
2019-04-07T05:10:37.599Z,58.97
2019-04-07T05:11:37.593Z,59.35
2019-04-07T05:12:37.914Z,59.92
2019-04-07T05:13:37.595Z,60.21
2019-04-07T05:14:37.818Z,60.02
2019-04-07T05:15:37.847Z,59.83
2019-04-07T05:16:37.574Z,59.92
2019-04-07T05:17:38.058Z,60.59
2019-04-07T05:18:38.238Z,60.30
2019-04-07T05:19:37.557Z,60.30
2019-04-07T05:20:37.681Z,60.30
2019-04-07T05:21:37.753Z,59.64
2019-04-07T05:22:38.015Z,59.54
2019-04-07T05:23:37.541Z,59.35
2019-04-07T05:24:37.667Z,60.30
2019-04-07T05:25:37.788Z,61.45
2019-04-07T05:26:37.715Z,62.59
2019-04-07T05:27:38.174Z,62.49
2019-04-07T05:28:38.038Z,65.39
2019-04-07T05:29:37.513Z,66.44
2019-04-07T05:30:37.953Z,67.00
2019-04-07T05:31:37.983Z,67.00
2019-04-07T05:32:37.784Z,66.82
2019-04-07T05:33:37.497Z,65.86
2019-04-07T05:34:37.790Z,67.00
2019-04-07T05:35:37.940Z,67.39
2019-04-07T05:36:37.938Z,68.05
2019-04-07T05:37:37.484Z,67.77
2019-04-07T05:38:37.752Z,68.05
2019-04-07T05:39:37.471Z,68.63
2019-04-07T05:40:37.466Z,69.68
2019-04-07T05:41:37.461Z,69.58
2019-04-07T05:42:37.939Z,70.63
2019-04-07T05:43:38.110Z,71.14
2019-04-07T05:44:37.448Z,72.00
2019-04-07T05:45:37.683Z,72.28
2019-04-07T05:46:40.302Z,73.24
2019-04-07T05:47:37.496Z,73.05
2019-04-07T05:48:38.222Z,73.33
2019-04-07T05:49:37.784Z,74.19
2019-04-07T05:50:37.427Z,76.57
2019-04-07T05:51:37.421Z,78.05
2019-04-07T05:52:39.640Z,79.67
2019-04-07T05:53:37.714Z,78.72
2019-04-07T05:54:37.829Z,79.77
2019-04-07T05:55:37.408Z,81.01
2019-04-07T05:56:37.983Z,81.29
2019-04-07T05:57:37.793Z,80.53
2019-04-07T05:58:38.688Z,80.81
2019-04-07T05:59:37.657Z,80.24
2019-04-07T06:00:37.384Z,79.57
2019-04-07T06:01:37.381Z,78.23
2019-04-07T06:02:37.505Z,78.52
2019-04-07T06:03:41.066Z,79.57
2019-04-07T06:04:37.367Z,79.48
2019-04-07T06:05:37.663Z,80.33
2019-04-07T06:06:39.884Z,79.86
2019-04-07T06:07:37.818Z,81.48
2019-04-07T06:08:39.189Z,80.57
2019-04-07T06:09:37.366Z,80.85
2019-04-07T06:10:38.640Z,82.29
2019-04-07T06:11:37.882Z,83.62
2019-04-07T06:12:40.646Z,83.91
2019-04-07T06:13:37.944Z,83.67
2019-04-07T06:14:37.968Z,84.29
2019-04-07T06:15:38.135Z,83.67
2019-04-07T06:16:37.777Z,84.48
2019-04-07T06:17:37.865Z,84.43
2019-04-07T06:18:37.863Z,84.62
2019-04-07T06:19:40.577Z,84.33
2019-04-07T06:20:37.841Z,85.67
2019-04-07T06:21:37.824Z,84.81
2019-04-07T06:22:37.300Z,85.38
2019-04-07T06:23:37.528Z,85.10
2019-04-07T06:24:37.290Z,85.29
2019-04-07T06:25:41.499Z,85.67
2019-04-07T06:26:40.636Z,85.10
2019-04-07T06:27:37.283Z,85.10
2019-04-07T06:28:37.278Z,86.00
2019-04-07T06:29:37.752Z,86.00
2019-04-07T06:30:37.898Z,86.00
2019-04-07T06:31:37.951Z,86.00
2019-04-07T06:32:38.498Z,85.81
2019-04-07T06:33:38.201Z,85.52
2019-04-07T06:34:39.738Z,85.71
2019-04-07T06:35:37.968Z,85.05
2019-04-07T06:36:37.535Z,85.33
2019-04-07T06:37:37.411Z,85.42
2019-04-07T06:38:41.571Z,86.10
2019-04-07T06:39:37.360Z,85.62
2019-04-07T06:40:37.268Z,85.33
2019-04-07T06:41:37.762Z,85.52
2019-04-07T06:42:37.583Z,86.19
2019-04-07T06:43:38.413Z,86.57
2019-04-07T06:44:37.705Z,85.94
2019-04-07T06:45:37.221Z,85.38
2019-04-07T06:46:37.890Z,85.94
2019-04-07T06:47:37.215Z,86.10
2019-04-07T06:48:39.067Z,86.04
2019-04-07T06:49:37.208Z,85.75
2019-04-07T06:50:47.528Z,86.52
2019-04-07T06:51:37.285Z,85.66
2019-04-07T06:52:40.612Z,85.75
2019-04-07T06:53:37.197Z,85.94
2019-04-07T06:54:37.562Z,85.61
2019-04-07T06:55:37.190Z,85.80
2019-04-07T06:56:37.865Z,84.94
2019-04-07T06:57:37.727Z,84.84
2019-04-07T06:58:40.855Z,85.13
2019-04-07T06:59:37.250Z,85.32
2019-04-07T07:00:37.464Z,85.32
2019-04-07T07:01:37.377Z,85.41
2019-04-07T07:02:37.169Z,85.41
2019-04-07T07:03:38.711Z,85.51
2019-04-07T07:04:37.708Z,84.84
2019-04-07T07:05:37.161Z,84.94
2019-04-07T07:06:37.354Z,85.89
2019-04-07T07:07:37.935Z,84.46
2019-04-07T07:08:44.527Z,84.75
2019-04-07T07:09:38.758Z,84.79
2019-04-07T07:10:39.001Z,84.50
2019-04-07T07:11:40.856Z,84.12
2019-04-07T07:12:39.096Z,83.83
2019-04-07T07:13:41.344Z,83.45
2019-04-07T07:14:42.641Z,83.64
2019-04-07T07:15:37.216Z,83.64
2019-04-07T07:16:41.314Z,83.36
2019-04-07T07:17:37.650Z,83.16
2019-04-07T07:18:37.127Z,83.83
2019-04-07T07:19:37.935Z,83.45
2019-04-07T07:20:37.300Z,83.73
2019-04-07T07:21:39.261Z,83.93
2019-04-07T07:22:40.219Z,83.45
2019-04-07T07:23:37.472Z,83.36
2019-04-07T07:24:37.123Z,83.83
2019-04-07T07:25:37.276Z,83.36
2019-04-07T07:26:37.108Z,82.97
2019-04-07T07:27:40.480Z,83.26
2019-04-07T07:28:37.102Z,83.83
2019-04-07T07:29:37.102Z,83.01
2019-04-07T07:30:37.152Z,83.49
2019-04-07T07:31:37.097Z,83.68
2019-04-07T07:32:37.321Z,83.01
2019-04-07T07:33:40.416Z,83.97
2019-04-07T07:34:39.894Z,83.87
2019-04-07T07:35:37.642Z,83.01
2019-04-07T07:36:37.128Z,83.45
2019-04-07T07:37:37.760Z,83.73
2019-04-07T07:38:37.081Z,82.97
2019-04-07T07:39:37.082Z,83.06
2019-04-07T07:40:37.439Z,83.26
2019-04-07T07:41:37.746Z,83.64
2019-04-07T07:42:37.716Z,83.20
2019-04-07T07:43:37.074Z,83.59
2019-04-07T07:44:38.514Z,83.01
2019-04-07T07:45:37.204Z,83.68
2019-04-07T07:46:37.570Z,83.11
2019-04-07T07:47:37.241Z,83.20
2019-04-07T07:48:37.683Z,83.01
2019-04-07T07:49:40.064Z,83.30
2019-04-07T07:50:38.726Z,83.30
2019-04-07T07:51:39.276Z,83.39
2019-04-07T07:52:37.679Z,83.30
2019-04-07T07:53:37.263Z,83.49
2019-04-07T07:54:37.053Z,83.49
2019-04-07T07:55:37.857Z,83.11
2019-04-07T07:56:37.849Z,83.59
2019-04-07T07:57:37.099Z,83.49
2019-04-07T07:58:37.091Z,82.96
2019-04-07T07:59:38.437Z,82.96
2019-04-07T08:00:39.853Z,83.44
2019-04-07T08:01:37.346Z,83.34
2019-04-07T08:02:37.040Z,82.96
2019-04-07T08:03:37.040Z,82.67
2019-04-07T08:04:37.729Z,83.05
2019-04-07T08:05:37.588Z,83.15
2019-04-07T08:06:39.145Z,82.48
2019-04-07T08:07:37.040Z,82.96
2019-04-07T08:08:37.283Z,83.34
2019-04-07T08:09:37.088Z,83.53
2019-04-07T08:10:37.557Z,83.05
2019-04-07T08:11:37.383Z,82.67
2019-04-07T08:12:37.106Z,82.96
2019-04-07T08:13:42.030Z,82.57
2019-04-07T08:14:37.143Z,82.57
2019-04-07T08:15:37.028Z,81.62
2019-04-07T08:16:37.399Z,82.38
2019-04-07T08:17:37.653Z,82.38
2019-04-07T08:18:40.364Z,82.52
2019-04-07T08:19:40.674Z,82.32
2019-04-07T08:20:37.413Z,82.32
2019-04-07T08:21:37.019Z,81.66
2019-04-07T08:22:42.379Z,82.23
2019-04-07T08:23:37.395Z,82.42
2019-04-07T08:24:37.252Z,81.46
2019-04-07T08:25:37.830Z,82.23
2019-04-07T08:26:37.014Z,81.66
2019-04-07T08:27:37.029Z,81.56
2019-04-07T08:28:37.010Z,80.99
2019-04-07T08:29:37.484Z,80.79
2019-04-07T08:30:37.197Z,81.37
2019-04-07T08:31:37.266Z,81.46
2019-04-07T08:32:37.010Z,80.60
2019-04-07T08:33:37.428Z,81.56
2019-04-07T08:34:37.192Z,81.31
2019-04-07T08:35:39.458Z,80.83
2019-04-07T08:36:37.005Z,80.35
2019-04-07T08:37:37.006Z,80.97
2019-04-07T08:38:37.585Z,81.07
2019-04-07T08:39:37.503Z,80.68
2019-04-07T08:40:38.919Z,79.76
2019-04-07T08:41:39.683Z,79.52
2019-04-07T08:42:37.085Z,76.52
2019-04-07T08:43:37.361Z,74.73
2019-04-07T08:44:37.032Z,72.45
2019-04-07T08:45:37.124Z,71.49
2019-04-07T08:46:40.935Z,70.47
2019-04-07T08:47:37.015Z,69.64
2019-04-07T08:48:37.446Z,67.65
2019-04-07T08:49:37.022Z,67.68
2019-04-07T08:50:37.454Z,67.65
2019-04-07T08:51:37.028Z,67.87
2019-04-07T08:52:40.783Z,66.42
2019-04-07T08:53:37.718Z,66.11
2019-04-07T08:54:37.042Z,65.40
2019-04-07T08:55:37.051Z,65.24
2019-04-07T08:56:37.608Z,65.24
2019-04-07T08:57:37.256Z,65.20
2019-04-07T08:58:38.755Z,63.41
2019-04-07T08:59:39.880Z,65.08
2019-04-07T09:00:37.254Z,65.78
2019-04-07T09:01:37.211Z,64.37
2019-04-07T09:03:37.472Z,62.66
2019-04-07T09:04:37.106Z,62.92
2019-04-07T09:05:37.113Z,61.28
2019-04-07T09:06:37.484Z,60.71
2019-04-07T09:07:37.849Z,61.47
2019-04-07T09:08:38.177Z,60.61
2019-04-07T09:09:40.363Z,58.94
2019-04-07T09:10:37.244Z,59.61
2019-04-07T09:11:39.987Z,59.23
2019-04-07T09:12:37.173Z,60.00
2019-04-07T09:13:37.337Z,59.52
2019-04-07T09:14:39.482Z,60.10
2019-04-07T09:18:15.896Z,60.00
2019-04-07T09:19:14.952Z,59.71
2019-04-07T09:20:15.024Z,59.42
2019-04-07T09:21:15.626Z,59.90
2019-04-07T09:22:15.433Z,59.65
2019-04-07T09:23:14.938Z,60.00
2019-04-07T09:24:15.033Z,58.94
2019-04-07T09:25:15.053Z,57.90
2019-04-07T09:26:15.048Z,57.04
2019-04-07T09:27:19.425Z,57.81
2019-04-07T09:28:14.988Z,57.65
2019-04-07T09:29:15.160Z,58.19
2019-04-07T09:30:15.310Z,57.20
2019-04-07T09:31:15.019Z,57.39
2019-04-07T09:32:15.630Z,57.14
2019-04-07T09:33:15.040Z,57.04
2019-04-07T09:34:18.305Z,56.00
2019-04-07T09:35:15.541Z,55.30
2019-04-07T09:36:15.074Z,56.13
2019-04-07T09:37:17.400Z,56.03
2019-04-07T09:38:15.310Z,55.89
2019-04-07T09:39:15.614Z,53.28
2019-04-07T09:40:17.419Z,53.45
2019-04-07T09:41:17.195Z,54.24
2019-04-07T09:42:15.887Z,55.52
2019-04-07T09:44:19.736Z,56.03
2019-04-07T09:45:15.186Z,53.91
2019-04-07T09:46:15.187Z,54.91
2019-04-07T09:47:16.293Z,56.20
2019-04-07T09:48:17.699Z,55.15
2019-04-07T09:49:15.221Z,58.04
2019-04-07T09:50:15.239Z,58.00
2019-04-07T09:51:15.367Z,56.46
2019-04-07T09:52:16.113Z,56.56
2019-04-07T09:53:17.053Z,57.19
2019-04-07T09:54:15.279Z,55.99
2019-04-07T09:55:15.289Z,53.77
2019-04-07T09:56:15.302Z,51.20
2019-04-07T09:57:15.667Z,51.59
2019-04-07T09:58:16.069Z,53.37
2019-04-07T09:59:18.166Z,54.33
2019-04-07T10:00:15.948Z,54.10
2019-04-07T10:01:18.943Z,53.37
2019-04-07T10:02:15.647Z,53.52
2019-04-07T10:03:16.257Z,53.45
2019-04-07T10:04:15.393Z,53.13
2019-04-07T10:05:15.408Z,53.33
2019-04-07T10:06:15.416Z,52.75
2019-04-07T10:07:16.498Z,53.59
2019-04-07T10:08:17.938Z,53.52
2019-04-07T10:09:15.786Z,53.35
2019-04-07T10:10:15.929Z,52.70
2019-04-07T10:11:16.010Z,51.49
2019-04-07T10:12:15.510Z,52.45
2019-04-07T10:13:16.198Z,53.52
2019-04-07T10:14:15.523Z,52.94
2019-04-07T10:15:15.519Z,53.11
2019-04-07T10:16:15.528Z,53.42
2019-04-07T10:17:16.447Z,54.10
2019-04-07T10:18:15.587Z,55.41
2019-04-07T10:19:15.565Z,53.09
2019-04-07T10:20:15.573Z,53.23
2019-04-07T10:21:15.665Z,55.16
2019-04-07T10:22:15.596Z,54.17
2019-04-07T10:23:16.225Z,54.33
2019-04-07T10:24:16.897Z,54.17
2019-04-07T10:25:15.630Z,54.36
2019-04-07T10:26:15.753Z,53.20
2019-04-07T10:27:17.531Z,53.47
2019-04-07T10:28:15.664Z,53.27
2019-04-07T10:29:16.539Z,53.30
2019-04-07T10:30:15.719Z,53.03
2019-04-07T10:31:19.287Z,54.31
2019-04-07T10:32:15.711Z,55.94
2019-04-07T10:33:15.831Z,56.04
2019-04-07T10:34:16.211Z,55.13
2019-04-07T10:35:15.741Z,55.40
2019-04-07T10:36:15.930Z,54.24
2019-04-07T10:37:16.788Z,54.29
2019-04-07T10:38:15.773Z,52.65
2019-04-07T10:39:15.784Z,53.56
2019-04-07T10:40:19.569Z,53.42
2019-04-07T10:41:15.926Z,53.03
2019-04-07T10:42:15.816Z,52.77
2019-04-07T10:43:15.825Z,52.63
2019-04-07T10:44:16.122Z,50.89
2019-04-07T10:45:16.327Z,50.14
2019-04-07T10:46:15.858Z,50.07
2019-04-07T10:47:16.027Z,49.73
2019-04-07T10:48:15.888Z,51.23
2019-04-07T10:49:15.892Z,52.09
2019-04-07T10:50:16.729Z,52.72
2019-04-07T10:51:15.909Z,54.31
2019-04-07T10:52:15.927Z,55.15
2019-04-07T10:53:16.008Z,56.69
2019-04-07T10:54:16.091Z,56.11
2019-04-07T10:55:16.620Z,56.69
2019-04-07T10:56:16.323Z,57.29
2019-04-07T10:57:16.578Z,57.17
2019-04-07T10:58:16.354Z,57.07
2019-04-07T10:59:16.131Z,57.17
2019-04-07T11:00:15.995Z,57.37
2019-04-07T11:01:16.755Z,57.27
2019-04-07T11:02:16.803Z,56.62
2019-04-07T11:03:16.394Z,57.27
2019-04-07T11:04:16.028Z,57.29
2019-04-07T11:05:16.037Z,57.10
2019-04-07T11:06:16.714Z,57.17
2019-04-07T11:07:18.291Z,57.10
2019-04-07T11:08:16.669Z,57.23
2019-04-07T11:09:16.660Z,55.68
2019-04-07T11:10:16.743Z,55.98
2019-04-07T11:11:16.165Z,55.33
2019-04-07T11:12:16.092Z,56.16
2019-04-07T11:13:16.777Z,56.14
2019-04-07T11:14:16.166Z,56.49
2019-04-07T11:15:16.710Z,57.24
2019-04-07T11:16:16.125Z,58.52
2019-04-07T11:17:16.243Z,58.42
2019-04-07T11:18:16.473Z,57.92
2019-04-07T11:19:16.154Z,58.69
2019-04-07T11:20:16.958Z,59.55
2019-04-07T11:21:16.604Z,58.78
2019-04-07T11:22:16.170Z,58.20
2019-04-07T11:23:16.595Z,58.72
2019-04-07T11:24:16.567Z,59.30
2019-04-07T11:25:16.457Z,58.94
2019-04-07T11:26:16.691Z,58.55
2019-04-07T11:27:16.711Z,58.04
2019-04-07T11:28:16.542Z,58.04
2019-04-07T11:29:16.590Z,59.65
2019-04-07T11:30:16.939Z,59.65
2019-04-07T11:31:16.781Z,60.10
2019-04-07T11:32:16.450Z,60.30
2019-04-07T11:33:16.288Z,60.30
2019-04-07T11:34:16.249Z,60.00
2019-04-07T11:35:17.037Z,59.43
2019-04-07T11:38:43.020Z,59.75
2019-04-07T11:39:43.493Z,59.17
2019-04-07T11:40:48.917Z,58.49
2019-04-07T11:41:43.538Z,58.59
2019-04-07T11:42:42.987Z,58.20
2019-04-07T11:43:42.916Z,59.55
2019-04-07T11:44:42.920Z,60.00
2019-04-07T11:45:53.282Z,59.52
2019-04-07T11:46:43.193Z,59.75
2019-04-07T11:47:43.030Z,59.55
2019-04-07T11:48:43.262Z,59.65
2019-04-07T11:49:44.632Z,59.33
2019-04-07T11:50:42.949Z,59.33
2019-04-07T11:51:42.953Z,59.45
2019-04-07T11:52:42.959Z,59.36
2019-04-07T11:53:44.169Z,59.30
2019-04-07T11:54:43.766Z,58.81
2019-04-07T11:55:43.175Z,58.11
2019-04-07T11:56:43.407Z,57.82
2019-04-07T11:57:45.091Z,58.20
2019-04-07T11:58:43.050Z,58.11
2019-04-07T11:59:43.617Z,58.69
2019-04-07T12:00:42.995Z,59.65
2019-04-07T12:01:46.022Z,59.33
2019-04-07T12:02:44.247Z,60.00
2019-04-07T12:03:43.011Z,59.33
2019-04-07T12:04:43.624Z,59.33
2019-04-07T12:05:43.017Z,60.20
2019-04-07T12:06:46.578Z,60.39
2019-04-07T12:07:43.024Z,60.36
2019-04-07T12:08:43.032Z,61.04
2019-04-07T12:09:43.134Z,61.13
2019-04-07T12:10:54.912Z,62.19
2019-04-07T12:11:43.042Z,62.38
2019-04-07T12:12:43.714Z,62.38
2019-04-07T12:13:44.608Z,61.52
2019-04-07T12:14:43.099Z,60.97
2019-04-07T12:15:43.057Z,60.97
2019-04-07T12:16:43.685Z,61.38
2019-04-07T12:17:43.540Z,60.80
2019-04-07T12:18:44.001Z,61.38
2019-04-07T12:19:43.076Z,61.87
2019-04-07T12:20:43.830Z,59.84
2019-04-07T12:21:43.723Z,60.13
2019-04-07T12:22:45.479Z,60.35
2019-04-07T12:23:43.337Z,60.16
2019-04-07T12:24:43.400Z,59.39
2019-04-07T12:25:43.100Z,60.35
2019-04-07T12:26:43.747Z,59.58
2019-04-07T12:27:43.906Z,58.91
2019-04-07T12:28:43.108Z,59.39
2019-04-07T12:29:44.519Z,61.32
2019-04-07T12:30:43.658Z,61.29
2019-04-07T12:31:43.353Z,61.29
2019-04-07T12:32:43.430Z,61.38
2019-04-07T12:33:43.244Z,60.97
2019-04-07T12:34:45.844Z,61.25
2019-04-07T12:35:43.138Z,61.10
2019-04-07T12:36:43.143Z,61.55
2019-04-07T12:37:43.734Z,61.55
2019-04-07T12:38:44.686Z,61.07
2019-04-07T12:39:43.155Z,60.87
2019-04-07T12:40:43.159Z,61.25
2019-04-07T12:41:43.672Z,60.77
2019-04-07T12:42:43.168Z,60.97
2019-04-07T12:43:46.852Z,60.77
2019-04-07T12:44:43.173Z,59.62
2019-04-07T12:45:43.835Z,60.58
2019-04-07T12:46:43.182Z,60.13
2019-04-07T12:47:44.008Z,59.27
2019-04-07T12:48:43.540Z,59.27
2019-04-07T12:49:45.512Z,59.27
2019-04-07T12:50:43.637Z,59.36
2019-04-07T12:51:44.104Z,59.07
2019-04-07T12:52:43.948Z,57.92
2019-04-07T12:53:43.369Z,58.11
2019-04-07T12:54:43.745Z,58.42
2019-04-07T12:55:44.024Z,57.85
2019-04-07T12:56:43.427Z,58.14
2019-04-07T12:57:43.535Z,56.40
2019-04-07T12:58:46.018Z,55.73
2019-04-07T12:59:47.761Z,55.73